sensor_id;sensor_type;location;lat;lon;timestamp;temperature;humidity
820;DHT22;392;48.838;2.322;2022-08-07T00:02:23;20.60;12.80
820;DHT22;392;48.838;2.322;2022-08-07T00:04:51;20.70;12.30
820;DHT22;392;48.838;2.322;2022-08-07T00:07:18;20.70;12.30
820;DHT22;392;48.838;2.322;2022-08-07T00:09:45;20.60;13.10
820;DHT22;392;48.838;2.322;2022-08-07T00:12:12;20.50;12.90
820;DHT22;392;48.838;2.322;2022-08-07T00:14:40;20.40;13.20
820;DHT22;392;48.838;2.322;2022-08-07T00:17:08;20.40;12.70
820;DHT22;392;48.838;2.322;2022-08-07T00:19:36;20.50;13.50
820;DHT22;392;48.838;2.322;2022-08-07T00:22:03;20.60;13.50
820;DHT22;392;48.838;2.322;2022-08-07T00:24:31;20.70;13.00
820;DHT22;392;48.838;2.322;2022-08-07T00:26:58;20.60;13.20
820;DHT22;392;48.838;2.322;2022-08-07T00:29:26;20.60;13.60
820;DHT22;392;48.838;2.322;2022-08-07T00:31:54;20.50;13.80
820;DHT22;392;48.838;2.322;2022-08-07T00:34:26;20.50;14.40
820;DHT22;392;48.838;2.322;2022-08-07T00:36:54;20.40;13.70
820;DHT22;392;48.838;2.322;2022-08-07T00:39:22;20.40;13.70
820;DHT22;392;48.838;2.322;2022-08-07T00:41:51;20.40;13.70
820;DHT22;392;48.838;2.322;2022-08-07T00:44:20;20.30;14.50
820;DHT22;392;48.838;2.322;2022-08-07T00:46:48;20.40;14.00
820;DHT22;392;48.838;2.322;2022-08-07T00:49:16;20.30;13.70
820;DHT22;392;48.838;2.322;2022-08-07T00:51:45;20.20;13.90
820;DHT22;392;48.838;2.322;2022-08-07T00:54:13;20.00;14.10
820;DHT22;392;48.838;2.322;2022-08-07T00:56:40;19.90;14.70
820;DHT22;392;48.838;2.322;2022-08-07T00:59:09;19.90;15.30
820;DHT22;392;48.838;2.322;2022-08-07T01:01:36;20.00;14.80
820;DHT22;392;48.838;2.322;2022-08-07T01:04:05;20.00;15.20
820;DHT22;392;48.838;2.322;2022-08-07T01:06:33;19.90;15.20
820;DHT22;392;48.838;2.322;2022-08-07T01:09:03;20.00;14.70
820;DHT22;392;48.838;2.322;2022-08-07T01:11:31;20.00;15.00
820;DHT22;392;48.838;2.322;2022-08-07T01:13:59;19.90;15.50
820;DHT22;392;48.838;2.322;2022-08-07T01:16:27;19.80;16.10
820;DHT22;392;48.838;2.322;2022-08-07T01:18:55;19.80;15.50
820;DHT22;392;48.838;2.322;2022-08-07T01:21:24;19.70;15.30
820;DHT22;392;48.838;2.322;2022-08-07T01:23:56;19.60;15.30
820;DHT22;392;48.838;2.322;2022-08-07T01:26:25;19.60;15.30
820;DHT22;392;48.838;2.322;2022-08-07T01:28:54;19.50;15.30
820;DHT22;392;48.838;2.322;2022-08-07T01:31:24;19.50;16.30
820;DHT22;392;48.838;2.322;2022-08-07T01:33:57;19.40;16.10
820;DHT22;392;48.838;2.322;2022-08-07T01:36:31;19.40;16.10
820;DHT22;392;48.838;2.322;2022-08-07T01:39:00;19.30;16.00
820;DHT22;392;48.838;2.322;2022-08-07T01:41:28;19.10;16.30
820;DHT22;392;48.838;2.322;2022-08-07T01:43:59;18.90;16.90
820;DHT22;392;48.838;2.322;2022-08-07T01:46:28;18.90;16.90
820;DHT22;392;48.838;2.322;2022-08-07T01:48:55;18.90;17.10
820;DHT22;392;48.838;2.322;2022-08-07T01:51:25;18.90;17.00
820;DHT22;392;48.838;2.322;2022-08-07T01:53:56;18.90;17.10
820;DHT22;392;48.838;2.322;2022-08-07T01:56:28;18.90;17.70
820;DHT22;392;48.838;2.322;2022-08-07T01:59:02;18.90;17.20
820;DHT22;392;48.838;2.322;2022-08-07T02:01:35;18.80;17.30
820;DHT22;392;48.838;2.322;2022-08-07T02:04:08;18.80;17.70
820;DHT22;392;48.838;2.322;2022-08-07T02:06:40;18.90;18.00
820;DHT22;392;48.838;2.322;2022-08-07T02:09:15;18.90;17.70
820;DHT22;392;48.838;2.322;2022-08-07T02:11:47;19.00;17.70
820;DHT22;392;48.838;2.322;2022-08-07T02:14:17;19.10;17.40
820;DHT22;392;48.838;2.322;2022-08-07T02:16:48;19.10;17.70
820;DHT22;392;48.838;2.322;2022-08-07T02:19:20;19.10;17.70
820;DHT22;392;48.838;2.322;2022-08-07T02:21:48;19.10;17.30
820;DHT22;392;48.838;2.322;2022-08-07T02:24:20;19.20;17.70
820;DHT22;392;48.838;2.322;2022-08-07T02:26:48;19.10;18.10
820;DHT22;392;48.838;2.322;2022-08-07T02:29:16;19.10;17.90
820;DHT22;392;48.838;2.322;2022-08-07T02:31:45;19.10;18.30
820;DHT22;392;48.838;2.322;2022-08-07T02:34:13;19.10;18.10
820;DHT22;392;48.838;2.322;2022-08-07T02:36:48;19.00;18.20
820;DHT22;392;48.838;2.322;2022-08-07T02:39:17;18.90;17.90
820;DHT22;392;48.838;2.322;2022-08-07T02:41:47;18.90;18.70
820;DHT22;392;48.838;2.322;2022-08-07T02:44:16;18.80;18.70
820;DHT22;392;48.838;2.322;2022-08-07T02:46:45;18.70;18.40
820;DHT22;392;48.838;2.322;2022-08-07T02:49:15;18.70;18.90
820;DHT22;392;48.838;2.322;2022-08-07T02:51:45;18.60;19.00
820;DHT22;392;48.838;2.322;2022-08-07T02:54:14;18.60;18.90
820;DHT22;392;48.838;2.322;2022-08-07T02:56:45;18.60;18.90
820;DHT22;392;48.838;2.322;2022-08-07T02:59:17;18.50;19.10
820;DHT22;392;48.838;2.322;2022-08-07T03:01:45;18.50;19.40
820;DHT22;392;48.838;2.322;2022-08-07T03:04:14;18.50;19.70
820;DHT22;392;48.838;2.322;2022-08-07T03:06:43;18.60;19.20
820;DHT22;392;48.838;2.322;2022-08-07T03:09:14;18.60;19.30
820;DHT22;392;48.838;2.322;2022-08-07T03:11:45;18.70;19.20
820;DHT22;392;48.838;2.322;2022-08-07T03:14:13;18.60;19.00
820;DHT22;392;48.838;2.322;2022-08-07T03:16:41;18.50;19.30
820;DHT22;392;48.838;2.322;2022-08-07T03:19:09;18.40;20.00
820;DHT22;392;48.838;2.322;2022-08-07T03:21:38;18.40;20.20
820;DHT22;392;48.838;2.322;2022-08-07T03:24:06;18.40;19.80
820;DHT22;392;48.838;2.322;2022-08-07T03:26:35;18.30;20.50
820;DHT22;392;48.838;2.322;2022-08-07T03:29:08;18.30;20.10
820;DHT22;392;48.838;2.322;2022-08-07T03:31:41;18.20;20.10
820;DHT22;392;48.838;2.322;2022-08-07T03:34:09;18.00;20.40
820;DHT22;392;48.838;2.322;2022-08-07T03:36:38;17.90;20.60
820;DHT22;392;48.838;2.322;2022-08-07T03:39:09;17.90;20.90
820;DHT22;392;48.838;2.322;2022-08-07T03:41:38;17.90;21.10
820;DHT22;392;48.838;2.322;2022-08-07T03:44:08;17.80;21.10
820;DHT22;392;48.838;2.322;2022-08-07T03:46:36;17.70;21.40
820;DHT22;392;48.838;2.322;2022-08-07T03:49:07;17.60;21.60
820;DHT22;392;48.838;2.322;2022-08-07T03:51:40;17.60;21.90
820;DHT22;392;48.838;2.322;2022-08-07T03:54:09;17.50;22.00
820;DHT22;392;48.838;2.322;2022-08-07T03:56:38;17.60;22.90
820;DHT22;392;48.838;2.322;2022-08-07T03:59:08;17.50;22.30
820;DHT22;392;48.838;2.322;2022-08-07T04:01:40;17.60;22.40
820;DHT22;392;48.838;2.322;2022-08-07T04:04:09;17.60;22.40
820;DHT22;392;48.838;2.322;2022-08-07T04:06:38;17.60;22.40
820;DHT22;392;48.838;2.322;2022-08-07T04:09:13;17.60;22.40
820;DHT22;392;48.838;2.322;2022-08-07T04:11:43;17.50;22.30
820;DHT22;392;48.838;2.322;2022-08-07T04:14:12;17.60;22.40
820;DHT22;392;48.838;2.322;2022-08-07T04:16:40;17.70;22.40
820;DHT22;392;48.838;2.322;2022-08-07T04:19:08;17.70;22.40
820;DHT22;392;48.838;2.322;2022-08-07T04:21:36;17.60;22.40
820;DHT22;392;48.838;2.322;2022-08-07T04:24:04;17.60;22.80
820;DHT22;392;48.838;2.322;2022-08-07T04:26:37;17.50;23.20
820;DHT22;392;48.838;2.322;2022-08-07T04:29:06;17.50;22.70
820;DHT22;392;48.838;2.322;2022-08-07T04:31:36;17.40;22.80
820;DHT22;392;48.838;2.322;2022-08-07T04:34:06;17.40;24.00
820;DHT22;392;48.838;2.322;2022-08-07T04:36:35;17.40;23.00
820;DHT22;392;48.838;2.322;2022-08-07T04:39:04;17.30;23.30
820;DHT22;392;48.838;2.322;2022-08-07T04:41:32;17.20;23.60
820;DHT22;392;48.838;2.322;2022-08-07T04:44:00;17.20;23.70
820;DHT22;392;48.838;2.322;2022-08-07T04:46:40;17.20;23.70
820;DHT22;392;48.838;2.322;2022-08-07T04:49:17;17.20;23.70
820;DHT22;392;48.838;2.322;2022-08-07T04:51:59;17.20;23.70
820;DHT22;392;48.838;2.322;2022-08-07T04:54:32;17.30;23.70
820;DHT22;392;48.838;2.322;2022-08-07T04:57:09;17.30;23.60
820;DHT22;392;48.838;2.322;2022-08-07T04:59:52;17.40;23.70
820;DHT22;392;48.838;2.322;2022-08-07T05:02:27;17.50;23.50
820;DHT22;392;48.838;2.322;2022-08-07T05:05:02;17.60;22.90
820;DHT22;392;48.838;2.322;2022-08-07T05:07:35;17.70;22.90
820;DHT22;392;48.838;2.322;2022-08-07T05:10:10;17.80;23.20
820;DHT22;392;48.838;2.322;2022-08-07T05:12:47;17.90;23.20
820;DHT22;392;48.838;2.322;2022-08-07T05:15:20;18.00;22.60
820;DHT22;392;48.838;2.322;2022-08-07T05:17:59;18.10;22.40
820;DHT22;392;48.838;2.322;2022-08-07T05:20:32;18.20;22.20
820;DHT22;392;48.838;2.322;2022-08-07T05:23:07;18.20;22.10
820;DHT22;392;48.838;2.322;2022-08-07T05:25:39;18.30;22.00
820;DHT22;392;48.838;2.322;2022-08-07T05:28:08;18.40;21.90
820;DHT22;392;48.838;2.322;2022-08-07T05:30:38;18.60;21.70
820;DHT22;392;48.838;2.322;2022-08-07T05:33:09;18.70;21.10
820;DHT22;392;48.838;2.322;2022-08-07T05:35:40;18.90;21.20
820;DHT22;392;48.838;2.322;2022-08-07T05:38:11;19.00;20.90
820;DHT22;392;48.838;2.322;2022-08-07T05:40:39;19.20;20.30
820;DHT22;392;48.838;2.322;2022-08-07T05:43:07;19.40;20.00
820;DHT22;392;48.838;2.322;2022-08-07T05:45:35;19.40;19.70
820;DHT22;392;48.838;2.322;2022-08-07T05:48:04;19.50;20.30
820;DHT22;392;48.838;2.322;2022-08-07T05:50:39;19.60;19.60
820;DHT22;392;48.838;2.322;2022-08-07T05:53:07;19.80;19.20
820;DHT22;392;48.838;2.322;2022-08-07T05:55:36;19.70;19.40
820;DHT22;392;48.838;2.322;2022-08-07T05:58:04;19.90;18.90
820;DHT22;392;48.838;2.322;2022-08-07T06:00:33;19.90;19.30
820;DHT22;392;48.838;2.322;2022-08-07T06:03:06;19.70;19.00
820;DHT22;392;48.838;2.322;2022-08-07T06:05:36;19.30;19.40
820;DHT22;392;48.838;2.322;2022-08-07T06:08:09;19.00;20.20
820;DHT22;392;48.838;2.322;2022-08-07T06:10:37;19.00;20.90
820;DHT22;392;48.838;2.322;2022-08-07T06:13:08;19.20;20.10
820;DHT22;392;48.838;2.322;2022-08-07T06:15:35;19.30;19.90
820;DHT22;392;48.838;2.322;2022-08-07T06:18:03;19.40;19.50
820;DHT22;392;48.838;2.322;2022-08-07T06:20:34;19.50;19.50
820;DHT22;392;48.838;2.322;2022-08-07T06:23:04;19.90;19.20
820;DHT22;392;48.838;2.322;2022-08-07T06:25:39;20.20;18.30
820;DHT22;392;48.838;2.322;2022-08-07T06:28:08;20.60;18.00
820;DHT22;392;48.838;2.322;2022-08-07T06:30:37;21.00;17.50
820;DHT22;392;48.838;2.322;2022-08-07T06:33:09;21.40;16.60
820;DHT22;392;48.838;2.322;2022-08-07T06:35:37;21.70;15.90
820;DHT22;392;48.838;2.322;2022-08-07T06:38:05;22.10;15.40
820;DHT22;392;48.838;2.322;2022-08-07T06:40:38;22.30;15.10
820;DHT22;392;48.838;2.322;2022-08-07T06:43:09;22.60;14.50
820;DHT22;392;48.838;2.322;2022-08-07T06:46:07;22.80;13.90
820;DHT22;392;48.838;2.322;2022-08-07T06:48:35;23.20;13.60
820;DHT22;392;48.838;2.322;2022-08-07T06:51:06;23.50;12.50
820;DHT22;392;48.838;2.322;2022-08-07T06:53:38;23.80;12.40
820;DHT22;392;48.838;2.322;2022-08-07T06:56:12;24.00;12.30
820;DHT22;392;48.838;2.322;2022-08-07T06:58:40;24.30;11.90
820;DHT22;392;48.838;2.322;2022-08-07T07:01:11;24.50;11.30
820;DHT22;392;48.838;2.322;2022-08-07T07:03:41;24.60;10.70
820;DHT22;392;48.838;2.322;2022-08-07T07:06:09;24.60;10.90
820;DHT22;392;48.838;2.322;2022-08-07T07:08:37;24.60;11.30
820;DHT22;392;48.838;2.322;2022-08-07T07:11:04;24.80;10.90
820;DHT22;392;48.838;2.322;2022-08-07T07:13:37;25.10;10.50
820;DHT22;392;48.838;2.322;2022-08-07T07:16:10;25.30;10.10
820;DHT22;392;48.838;2.322;2022-08-07T07:18:43;25.40;9.80
820;DHT22;392;48.838;2.322;2022-08-07T07:21:18;25.50;9.50
820;DHT22;392;48.838;2.322;2022-08-07T07:23:47;25.70;9.20
820;DHT22;392;48.838;2.322;2022-08-07T07:26:17;25.90;8.90
820;DHT22;392;48.838;2.322;2022-08-07T07:28:51;26.10;9.20
820;DHT22;392;48.838;2.322;2022-08-07T07:31:24;26.30;7.90
820;DHT22;392;48.838;2.322;2022-08-07T07:33:57;26.40;7.80
820;DHT22;392;48.838;2.322;2022-08-07T07:36:31;26.40;8.10
820;DHT22;392;48.838;2.322;2022-08-07T07:39:01;26.30;8.30
820;DHT22;392;48.838;2.322;2022-08-07T07:41:32;26.50;8.00
820;DHT22;392;48.838;2.322;2022-08-07T07:44:02;26.80;7.40
820;DHT22;392;48.838;2.322;2022-08-07T07:46:34;27.10;7.00
820;DHT22;392;48.838;2.322;2022-08-07T07:49:03;27.20;6.40
820;DHT22;392;48.838;2.322;2022-08-07T07:51:32;27.30;6.30
820;DHT22;392;48.838;2.322;2022-08-07T07:54:01;27.40;6.50
820;DHT22;392;48.838;2.322;2022-08-07T07:56:29;27.60;6.10
820;DHT22;392;48.838;2.322;2022-08-07T07:58:58;27.90;5.10
820;DHT22;392;48.838;2.322;2022-08-07T08:01:28;28.20;5.30
820;DHT22;392;48.838;2.322;2022-08-07T08:03:57;28.30;5.00
820;DHT22;392;48.838;2.322;2022-08-07T08:06:27;28.60;4.20
820;DHT22;392;48.838;2.322;2022-08-07T08:08:56;28.80;4.30
820;DHT22;392;48.838;2.322;2022-08-07T08:11:24;29.00;3.50
820;DHT22;392;48.838;2.322;2022-08-07T08:13:52;29.20;3.20
820;DHT22;392;48.838;2.322;2022-08-07T08:16:20;29.30;3.60
820;DHT22;392;48.838;2.322;2022-08-07T08:18:54;29.40;3.70
820;DHT22;392;48.838;2.322;2022-08-07T08:21:23;29.60;2.80
820;DHT22;392;48.838;2.322;2022-08-07T08:24:09;29.50;2.10
820;DHT22;392;48.838;2.322;2022-08-07T08:26:56;29.60;2.60
820;DHT22;392;48.838;2.322;2022-08-07T08:29:37;29.80;2.20
820;DHT22;392;48.838;2.322;2022-08-07T08:32:09;29.80;1.90
820;DHT22;392;48.838;2.322;2022-08-07T08:34:40;29.80;2.00
820;DHT22;392;48.838;2.322;2022-08-07T08:37:10;29.90;2.30
820;DHT22;392;48.838;2.322;2022-08-07T08:39:39;30.20;2.20
820;DHT22;392;48.838;2.322;2022-08-07T08:42:20;30.50;1.00
820;DHT22;392;48.838;2.322;2022-08-07T08:44:57;30.70;1.00
820;DHT22;392;48.838;2.322;2022-08-07T08:47:39;30.70;1.00
820;DHT22;392;48.838;2.322;2022-08-07T08:50:18;30.60;1.00
820;DHT22;392;48.838;2.322;2022-08-07T08:52:50;30.50;1.00
820;DHT22;392;48.838;2.322;2022-08-07T08:55:24;30.70;1.00
820;DHT22;392;48.838;2.322;2022-08-07T08:58:02;30.70;1.00
820;DHT22;392;48.838;2.322;2022-08-07T09:00:39;30.60;1.00
820;DHT22;392;48.838;2.322;2022-08-07T09:03:16;30.60;1.00
820;DHT22;392;48.838;2.322;2022-08-07T09:05:54;30.70;1.00
820;DHT22;392;48.838;2.322;2022-08-07T09:08:40;30.90;1.00
820;DHT22;392;48.838;2.322;2022-08-07T09:11:16;30.90;1.00
820;DHT22;392;48.838;2.322;2022-08-07T09:14:05;30.80;1.00
820;DHT22;392;48.838;2.322;2022-08-07T09:16:48;30.50;1.00
820;DHT22;392;48.838;2.322;2022-08-07T09:19:40;30.60;1.00
820;DHT22;392;48.838;2.322;2022-08-07T09:22:28;31.00;1.00
820;DHT22;392;48.838;2.322;2022-08-07T09:25:09;31.30;1.00
820;DHT22;392;48.838;2.322;2022-08-07T09:27:43;31.60;1.00
820;DHT22;392;48.838;2.322;2022-08-07T09:30:18;31.80;1.00
820;DHT22;392;48.838;2.322;2022-08-07T09:33:03;32.10;1.00
820;DHT22;392;48.838;2.322;2022-08-07T09:35:41;32.10;1.00
820;DHT22;392;48.838;2.322;2022-08-07T09:38:18;31.80;1.00
820;DHT22;392;48.838;2.322;2022-08-07T09:41:06;31.70;1.00
820;DHT22;392;48.838;2.322;2022-08-07T09:43:52;31.60;1.00
820;DHT22;392;48.838;2.322;2022-08-07T09:46:40;31.80;1.00
820;DHT22;392;48.838;2.322;2022-08-07T09:49:20;31.80;1.00
820;DHT22;392;48.838;2.322;2022-08-07T09:52:03;31.50;1.00
820;DHT22;392;48.838;2.322;2022-08-07T09:54:38;31.30;1.00
820;DHT22;392;48.838;2.322;2022-08-07T10:00:30;31.90;1.00
820;DHT22;392;48.838;2.322;2022-08-07T10:03:19;32.10;1.00
820;DHT22;392;48.838;2.322;2022-08-07T10:06:30;32.20;1.00
820;DHT22;392;48.838;2.322;2022-08-07T10:09:25;32.40;1.00
820;DHT22;392;48.838;2.322;2022-08-07T10:12:09;32.70;1.00
820;DHT22;392;48.838;2.322;2022-08-07T10:15:20;32.90;1.00
820;DHT22;392;48.838;2.322;2022-08-07T10:18:10;32.60;1.00
820;DHT22;392;48.838;2.322;2022-08-07T10:21:01;32.50;1.00
820;DHT22;392;48.838;2.322;2022-08-07T10:23:48;32.50;1.00
820;DHT22;392;48.838;2.322;2022-08-07T10:26:35;32.20;1.00
820;DHT22;392;48.838;2.322;2022-08-07T10:29:25;32.00;1.00
820;DHT22;392;48.838;2.322;2022-08-07T10:32:24;32.00;1.00
820;DHT22;392;48.838;2.322;2022-08-07T10:35:08;32.40;1.00
820;DHT22;392;48.838;2.322;2022-08-07T10:37:44;32.70;1.00
820;DHT22;392;48.838;2.322;2022-08-07T10:40:27;32.80;1.00
820;DHT22;392;48.838;2.322;2022-08-07T10:43:00;33.30;1.00
820;DHT22;392;48.838;2.322;2022-08-07T10:45:37;33.40;1.00
820;DHT22;392;48.838;2.322;2022-08-07T10:48:30;33.30;1.00
820;DHT22;392;48.838;2.322;2022-08-07T10:51:06;32.90;1.00
820;DHT22;392;48.838;2.322;2022-08-07T10:53:42;33.00;1.00
820;DHT22;392;48.838;2.322;2022-08-07T10:56:22;32.90;1.00
820;DHT22;392;48.838;2.322;2022-08-07T10:59:00;32.80;1.00
820;DHT22;392;48.838;2.322;2022-08-07T11:01:46;32.70;1.00
820;DHT22;392;48.838;2.322;2022-08-07T11:04:27;32.90;1.00
820;DHT22;392;48.838;2.322;2022-08-07T11:07:04;33.20;1.00
820;DHT22;392;48.838;2.322;2022-08-07T11:09:39;33.50;1.00
820;DHT22;392;48.838;2.322;2022-08-07T11:12:16;33.30;1.00
820;DHT22;392;48.838;2.322;2022-08-07T11:14:50;33.10;1.00
820;DHT22;392;48.838;2.322;2022-08-07T11:17:26;33.20;1.00
820;DHT22;392;48.838;2.322;2022-08-07T11:20:00;33.50;1.00
820;DHT22;392;48.838;2.322;2022-08-07T11:22:34;34.00;1.00
820;DHT22;392;48.838;2.322;2022-08-07T11:25:12;34.50;1.00
820;DHT22;392;48.838;2.322;2022-08-07T11:27:49;34.60;1.00
820;DHT22;392;48.838;2.322;2022-08-07T11:30:24;34.50;1.00
820;DHT22;392;48.838;2.322;2022-08-07T11:32:59;34.30;1.00
820;DHT22;392;48.838;2.322;2022-08-07T11:35:31;34.40;1.00
820;DHT22;392;48.838;2.322;2022-08-07T11:38:09;34.20;1.00
820;DHT22;392;48.838;2.322;2022-08-07T11:40:45;34.00;1.00
820;DHT22;392;48.838;2.322;2022-08-07T11:43:19;33.90;1.00
820;DHT22;392;48.838;2.322;2022-08-07T11:46:04;33.70;1.00
820;DHT22;392;48.838;2.322;2022-08-07T11:48:56;33.30;1.00
820;DHT22;392;48.838;2.322;2022-08-07T11:51:41;33.00;1.00
820;DHT22;392;48.838;2.322;2022-08-07T11:54:32;33.20;1.00
820;DHT22;392;48.838;2.322;2022-08-07T11:57:11;33.70;1.00
820;DHT22;392;48.838;2.322;2022-08-07T12:00:03;34.30;1.00
820;DHT22;392;48.838;2.322;2022-08-07T12:02:53;34.70;1.00
820;DHT22;392;48.838;2.322;2022-08-07T12:05:44;35.10;1.00
820;DHT22;392;48.838;2.322;2022-08-07T12:08:18;35.00;1.00
820;DHT22;392;48.838;2.322;2022-08-07T12:10:53;34.70;1.00
820;DHT22;392;48.838;2.322;2022-08-07T12:13:25;34.60;1.00
820;DHT22;392;48.838;2.322;2022-08-07T12:16:02;34.70;1.00
820;DHT22;392;48.838;2.322;2022-08-07T12:18:36;34.50;1.00
820;DHT22;392;48.838;2.322;2022-08-07T12:21:15;34.10;1.00
820;DHT22;392;48.838;2.322;2022-08-07T12:23:53;33.80;1.00
820;DHT22;392;48.838;2.322;2022-08-07T12:26:27;33.80;1.00
820;DHT22;392;48.838;2.322;2022-08-07T12:29:04;34.00;1.00
820;DHT22;392;48.838;2.322;2022-08-07T12:31:50;34.00;1.00
820;DHT22;392;48.838;2.322;2022-08-07T12:34:28;34.00;1.00
820;DHT22;392;48.838;2.322;2022-08-07T12:36:58;34.00;1.00
820;DHT22;392;48.838;2.322;2022-08-07T12:39:27;34.00;1.00
820;DHT22;392;48.838;2.322;2022-08-07T12:41:57;33.80;1.00
820;DHT22;392;48.838;2.322;2022-08-07T12:44:26;33.60;1.00
820;DHT22;392;48.838;2.322;2022-08-07T12:47:02;33.60;1.00
820;DHT22;392;48.838;2.322;2022-08-07T12:49:41;33.50;1.00
820;DHT22;392;48.838;2.322;2022-08-07T12:52:20;33.40;1.00
820;DHT22;392;48.838;2.322;2022-08-07T12:54:59;33.40;1.00
820;DHT22;392;48.838;2.322;2022-08-07T12:57:31;33.30;1.00
820;DHT22;392;48.838;2.322;2022-08-07T13:00:01;33.20;1.00
820;DHT22;392;48.838;2.322;2022-08-07T13:02:57;32.90;1.00
820;DHT22;392;48.838;2.322;2022-08-07T13:05:55;32.80;1.00
820;DHT22;392;48.838;2.322;2022-08-07T13:08:47;33.10;1.00
820;DHT22;392;48.838;2.322;2022-08-07T13:11:35;33.40;1.00
820;DHT22;392;48.838;2.322;2022-08-07T13:14:09;33.10;1.00
820;DHT22;392;48.838;2.322;2022-08-07T13:16:50;33.00;1.00
820;DHT22;392;48.838;2.322;2022-08-07T13:19:26;32.90;1.00
820;DHT22;392;48.838;2.322;2022-08-07T13:22:01;32.70;1.00
820;DHT22;392;48.838;2.322;2022-08-07T13:24:39;32.50;1.00
820;DHT22;392;48.838;2.322;2022-08-07T13:27:12;32.30;1.00
820;DHT22;392;48.838;2.322;2022-08-07T13:29:48;32.00;1.00
820;DHT22;392;48.838;2.322;2022-08-07T13:32:20;31.80;1.00
820;DHT22;392;48.838;2.322;2022-08-07T13:34:56;31.90;1.00
820;DHT22;392;48.838;2.322;2022-08-07T13:37:30;32.00;1.00
820;DHT22;392;48.838;2.322;2022-08-07T13:40:19;31.80;1.00
820;DHT22;392;48.838;2.322;2022-08-07T13:42:57;31.30;1.00
820;DHT22;392;48.838;2.322;2022-08-07T13:45:27;31.20;1.00
820;DHT22;392;48.838;2.322;2022-08-07T13:47:56;30.90;1.00
820;DHT22;392;48.838;2.322;2022-08-07T13:50:25;30.70;1.00
820;DHT22;392;48.838;2.322;2022-08-07T13:52:54;30.50;1.00
820;DHT22;392;48.838;2.322;2022-08-07T13:55:24;30.50;1.00
820;DHT22;392;48.838;2.322;2022-08-07T13:58:03;30.40;1.00
820;DHT22;392;48.838;2.322;2022-08-07T14:00:46;30.10;1.00
820;DHT22;392;48.838;2.322;2022-08-07T14:03:15;29.80;1.00
820;DHT22;392;48.838;2.322;2022-08-07T14:05:44;29.60;1.00
820;DHT22;392;48.838;2.322;2022-08-07T14:08:13;29.40;1.00
820;DHT22;392;48.838;2.322;2022-08-07T14:10:43;29.30;1.00
820;DHT22;392;48.838;2.322;2022-08-07T14:13:15;29.00;1.00
820;DHT22;392;48.838;2.322;2022-08-07T14:15:50;28.70;1.00
820;DHT22;392;48.838;2.322;2022-08-07T14:18:23;28.40;1.00
820;DHT22;392;48.838;2.322;2022-08-07T14:21:01;28.00;1.00
820;DHT22;392;48.838;2.322;2022-08-07T14:23:33;27.80;1.00
820;DHT22;392;48.838;2.322;2022-08-07T14:26:09;27.70;1.00
820;DHT22;392;48.838;2.322;2022-08-07T14:28:39;27.70;1.00
820;DHT22;392;48.838;2.322;2022-08-07T14:31:10;27.60;1.20
820;DHT22;392;48.838;2.322;2022-08-07T14:33:39;27.50;1.00
820;DHT22;392;48.838;2.322;2022-08-07T14:36:08;27.50;1.40
820;DHT22;392;48.838;2.322;2022-08-07T14:38:36;27.50;1.00
820;DHT22;392;48.838;2.322;2022-08-07T14:41:07;27.40;1.00
820;DHT22;392;48.838;2.322;2022-08-07T14:43:39;27.50;1.40
820;DHT22;392;48.838;2.322;2022-08-07T14:46:09;27.50;1.00
820;DHT22;392;48.838;2.322;2022-08-07T14:48:39;27.40;1.20
820;DHT22;392;48.838;2.322;2022-08-07T14:51:09;27.40;1.20
820;DHT22;392;48.838;2.322;2022-08-07T14:53:40;27.50;1.00
820;DHT22;392;48.838;2.322;2022-08-07T14:56:12;27.50;1.40
820;DHT22;392;48.838;2.322;2022-08-07T14:58:46;27.50;1.60
820;DHT22;392;48.838;2.322;2022-08-07T15:01:15;27.40;1.10
820;DHT22;392;48.838;2.322;2022-08-07T15:03:44;27.40;1.30
820;DHT22;392;48.838;2.322;2022-08-07T15:06:13;27.40;1.30
820;DHT22;392;48.838;2.322;2022-08-07T15:08:42;27.50;1.30
820;DHT22;392;48.838;2.322;2022-08-07T15:11:19;27.50;1.80
820;DHT22;392;48.838;2.322;2022-08-07T15:13:53;27.60;2.00
820;DHT22;392;48.838;2.322;2022-08-07T15:16:27;27.60;1.70
820;DHT22;392;48.838;2.322;2022-08-07T15:19:01;27.60;1.90
820;DHT22;392;48.838;2.322;2022-08-07T15:21:35;27.50;1.20
820;DHT22;392;48.838;2.322;2022-08-07T15:24:06;27.60;2.30
820;DHT22;392;48.838;2.322;2022-08-07T15:26:42;27.60;1.50
820;DHT22;392;48.838;2.322;2022-08-07T15:29:14;27.70;1.30
820;DHT22;392;48.838;2.322;2022-08-07T15:31:47;27.70;1.80
820;DHT22;392;48.838;2.322;2022-08-07T15:34:17;27.70;1.80
820;DHT22;392;48.838;2.322;2022-08-07T15:36:45;27.70;1.10
820;DHT22;392;48.838;2.322;2022-08-07T15:39:15;27.80;1.40
820;DHT22;392;48.838;2.322;2022-08-07T15:41:59;27.80;2.10
820;DHT22;392;48.838;2.322;2022-08-07T15:44:29;27.80;1.90
820;DHT22;392;48.838;2.322;2022-08-07T15:47:12;27.90;1.70
820;DHT22;392;48.838;2.322;2022-08-07T15:49:43;27.80;2.10
820;DHT22;392;48.838;2.322;2022-08-07T15:52:12;27.80;2.30
820;DHT22;392;48.838;2.322;2022-08-07T15:54:41;27.90;1.80
820;DHT22;392;48.838;2.322;2022-08-07T15:57:17;28.00;2.00
820;DHT22;392;48.838;2.322;2022-08-07T15:59:46;28.10;1.90
820;DHT22;392;48.838;2.322;2022-08-07T16:02:26;28.10;1.70
820;DHT22;392;48.838;2.322;2022-08-07T16:05:00;28.10;1.50
820;DHT22;392;48.838;2.322;2022-08-07T16:07:31;28.00;1.60
820;DHT22;392;48.838;2.322;2022-08-07T16:10:12;27.80;1.80
820;DHT22;392;48.838;2.322;2022-08-07T16:12:56;27.80;2.20
820;DHT22;392;48.838;2.322;2022-08-07T16:15:36;27.90;2.20
820;DHT22;392;48.838;2.322;2022-08-07T16:18:15;27.90;2.40
820;DHT22;392;48.838;2.322;2022-08-07T16:20:49;28.00;2.00
820;DHT22;392;48.838;2.322;2022-08-07T16:23:29;28.10;1.80
820;DHT22;392;48.838;2.322;2022-08-07T16:26:06;28.20;1.40
820;DHT22;392;48.838;2.322;2022-08-07T16:28:47;28.30;1.30
820;DHT22;392;48.838;2.322;2022-08-07T16:31:39;28.20;1.70
820;DHT22;392;48.838;2.322;2022-08-07T16:34:20;28.10;1.90
820;DHT22;392;48.838;2.322;2022-08-07T16:37:10;28.10;1.80
820;DHT22;392;48.838;2.322;2022-08-07T16:40:17;27.90;2.00
820;DHT22;392;48.838;2.322;2022-08-07T16:43:03;27.90;2.60
820;DHT22;392;48.838;2.322;2022-08-07T16:46:10;27.90;2.40
820;DHT22;392;48.838;2.322;2022-08-07T16:52:14;28.10;2.20
820;DHT22;392;48.838;2.322;2022-08-07T16:54:57;28.10;2.30
820;DHT22;392;48.838;2.322;2022-08-07T16:57:32;28.00;2.30
820;DHT22;392;48.838;2.322;2022-08-07T17:00:08;27.90;2.90
820;DHT22;392;48.838;2.322;2022-08-07T17:02:54;27.80;2.80
820;DHT22;392;48.838;2.322;2022-08-07T17:06:10;27.80;2.80
820;DHT22;392;48.838;2.322;2022-08-07T17:08:44;27.80;3.40
820;DHT22;392;48.838;2.322;2022-08-07T17:11:25;27.70;2.80
820;DHT22;392;48.838;2.322;2022-08-07T17:14:03;27.70;2.80
820;DHT22;392;48.838;2.322;2022-08-07T17:16:42;27.70;2.80
820;DHT22;392;48.838;2.322;2022-08-07T17:19:20;27.70;2.80
820;DHT22;392;48.838;2.322;2022-08-07T17:21:52;27.60;2.70
820;DHT22;392;48.838;2.322;2022-08-07T17:24:33;27.50;3.10
820;DHT22;392;48.838;2.322;2022-08-07T17:27:13;27.40;2.90
820;DHT22;392;48.838;2.322;2022-08-07T17:30:02;27.40;3.90
820;DHT22;392;48.838;2.322;2022-08-07T17:32:40;27.40;3.30
820;DHT22;392;48.838;2.322;2022-08-07T17:35:19;27.40;3.40
820;DHT22;392;48.838;2.322;2022-08-07T17:37:54;27.30;3.10
820;DHT22;392;48.838;2.322;2022-08-07T17:40:36;27.30;3.50